Terminal Aerodrome Forecast
Issued by NWS

Home | Current Version | Previous Version | Text Only | Print | Product List | Glossary On
Versions: 1 2 3 4 5 6 7 8 9 10 11 12 13 14 15 16 17 18 19 20 21 22 23 24 25 26 27 28 29 30 31 32 33 34 35 36 37 38 39 40 41 42
000
FTUS44 KHGX 261200 AAA
TAFIAH
TAF AMD
KIAH 261200Z 2612/2718 06006KT P6SM SCT015 BKN150
     FM261400 05006KT P6SM SCT025 BKN150
     FM261800 07006KT P6SM VCSH SCT025 BKN120
     FM262100 11007KT P6SM VCTS BKN040CB
     FM270100 12007KT P6SM BKN250
     FM271600 06006KT P6SM VCSH SCT025 BKN250=

USA.gov is the U.S. government's official web portal to all federal, state and local government web resources and services.